sensor_id;sensor_type;location;lat;lon;timestamp;pressure;altitude;pressure_sealevel;temperature;humidity
61742;BME280;47650;49.848;9.620;2023-02-28T00:01:45;100687.88;;;-0.37;60.33
61742;BME280;47650;49.848;9.620;2023-02-28T00:04:15;100624.59;;;-0.96;60.62
61742;BME280;47650;49.848;9.620;2023-02-28T00:06:41;100663.72;;;-0.42;60.68
61742;BME280;47650;49.848;9.620;2023-02-28T00:09:10;100634.97;;;-0.66;60.71
61742;BME280;47650;49.848;9.620;2023-02-28T00:11:44;100664.41;;;-0.64;61.04
61742;BME280;47650;49.848;9.620;2023-02-28T00:14:14;100668.03;;;-0.69;60.92
61742;BME280;47650;49.848;9.620;2023-02-28T00:16:59;100665.22;;;-0.62;60.54
61742;BME280;47650;49.848;9.620;2023-02-28T00:19:31;100678.69;;;-0.49;60.16
61742;BME280;47650;49.848;9.620;2023-02-28T00:21:57;100601.16;;;-0.96;60.33
61742;BME280;47650;49.848;9.620;2023-02-28T00:24:39;100678.22;;;-0.62;60.71
61742;BME280;47650;49.848;9.620;2023-02-28T00:27:05;100665.50;;;-0.71;59.88
61742;BME280;47650;49.848;9.620;2023-02-28T00:29:47;100676.06;;;-0.76;61.18
61742;BME280;47650;49.848;9.620;2023-02-28T00:32:14;100676.00;;;-0.74;61.08
61742;BME280;47650;49.848;9.620;2023-02-28T00:34:45;100692.31;;;-0.67;61.31
61742;BME280;47650;49.848;9.620;2023-02-28T00:37:15;100693.44;;;-0.76;61.93
61742;BME280;47650;49.848;9.620;2023-02-28T00:39:42;100667.22;;;-0.71;61.36
61742;BME280;47650;49.848;9.620;2023-02-28T00:42:14;100683.44;;;-0.62;61.88
61742;BME280;47650;49.848;9.620;2023-02-28T00:44:41;100689.03;;;-0.74;63.07
61742;BME280;47650;49.848;9.620;2023-02-28T00:47:06;100680.13;;;-0.67;62.51
61742;BME280;47650;49.848;9.620;2023-02-28T00:49:33;100646.78;;;-0.84;62.01
61742;BME280;47650;49.848;9.620;2023-02-28T00:52:01;100672.09;;;-0.61;61.64
61742;BME280;47650;49.848;9.620;2023-02-28T00:54:34;100646.84;;;-0.85;62.63
61742;BME280;47650;49.848;9.620;2023-02-28T00:57:00;100636.63;;;-0.91;62.87
61742;BME280;47650;49.848;9.620;2023-02-28T00:59:26;100672.50;;;-0.73;62.57
61742;BME280;47650;49.848;9.620;2023-02-28T01:01:58;100682.44;;;-0.58;62.41
61742;BME280;47650;49.848;9.620;2023-02-28T01:04:23;100691.63;;;-0.74;63.42
61742;BME280;47650;49.848;9.620;2023-02-28T01:06:59;100673.31;;;-0.71;61.91
61742;BME280;47650;49.848;9.620;2023-02-28T01:09:33;100659.16;;;-0.62;61.86
61742;BME280;47650;49.848;9.620;2023-02-28T01:11:58;100691.13;;;-0.87;63.75
61742;BME280;47650;49.848;9.620;2023-02-28T01:14:24;100683.63;;;-0.68;63.26
61742;BME280;47650;49.848;9.620;2023-02-28T01:16:49;100678.31;;;-0.65;62.67
61742;BME280;47650;49.848;9.620;2023-02-28T01:19:26;100662.19;;;-0.76;62.60
61742;BME280;47650;49.848;9.620;2023-02-28T01:21:53;100682.09;;;-1.03;63.22
61742;BME280;47650;49.848;9.620;2023-02-28T01:24:26;100668.28;;;-0.77;62.15
61742;BME280;47650;49.848;9.620;2023-02-28T01:26:53;100649.78;;;-0.96;62.86
61742;BME280;47650;49.848;9.620;2023-02-28T01:29:21;100650.47;;;-1.19;63.65
61742;BME280;47650;49.848;9.620;2023-02-28T01:31:56;100669.88;;;-0.73;62.28
61742;BME280;47650;49.848;9.620;2023-02-28T01:34:24;100660.84;;;-0.89;63.31
61742;BME280;47650;49.848;9.620;2023-02-28T01:36:50;100676.09;;;-0.77;62.17
61742;BME280;47650;49.848;9.620;2023-02-28T01:39:21;100660.06;;;-0.91;62.41
61742;BME280;47650;49.848;9.620;2023-02-28T01:41:46;100668.53;;;-0.85;61.97
61742;BME280;47650;49.848;9.620;2023-02-28T01:47:16;100668.13;;;-1.01;62.42
61742;BME280;47650;49.848;9.620;2023-02-28T01:49:43;100663.75;;;-0.99;62.87
61742;BME280;47650;49.848;9.620;2023-02-28T01:52:09;100647.47;;;-1.05;62.67
61742;BME280;47650;49.848;9.620;2023-02-28T01:54:49;100657.41;;;-1.20;63.02
61742;BME280;47650;49.848;9.620;2023-02-28T01:57:18;100652.63;;;-1.04;62.48
61742;BME280;47650;49.848;9.620;2023-02-28T01:59:52;100637.75;;;-1.00;62.81
61742;BME280;47650;49.848;9.620;2023-02-28T02:02:26;100647.88;;;-1.19;63.90
61742;BME280;47650;49.848;9.620;2023-02-28T02:05:20;100647.47;;;-1.05;63.31
61742;BME280;47650;49.848;9.620;2023-02-28T02:07:55;100634.41;;;-1.04;62.29
61742;BME280;47650;49.848;9.620;2023-02-28T02:10:36;100637.84;;;-1.03;62.20
61742;BME280;47650;49.848;9.620;2023-02-28T02:13:29;100628.66;;;-1.15;62.52
61742;BME280;47650;49.848;9.620;2023-02-28T02:16:33;100643.09;;;-1.05;62.18
61742;BME280;47650;49.848;9.620;2023-02-28T02:19:21;100639.16;;;-1.18;63.26
61742;BME280;47650;49.848;9.620;2023-02-28T02:22:10;100634.66;;;-1.13;62.49
61742;BME280;47650;49.848;9.620;2023-02-28T02:36:38;100635.97;;;-1.28;62.77
61742;BME280;47650;49.848;9.620;2023-02-28T02:39:27;100631.56;;;-1.26;63.11
61742;BME280;47650;49.848;9.620;2023-02-28T02:42:00;100629.78;;;-1.54;64.65
61742;BME280;47650;49.848;9.620;2023-02-28T02:44:30;100611.38;;;-1.47;63.67
61742;BME280;47650;49.848;9.620;2023-02-28T02:47:05;100621.13;;;-1.24;62.91
61742;BME280;47650;49.848;9.620;2023-02-28T02:49:43;100626.94;;;-1.16;62.55
61742;BME280;47650;49.848;9.620;2023-02-28T02:52:12;100638.06;;;-1.11;63.22
61742;BME280;47650;49.848;9.620;2023-02-28T02:54:48;100583.69;;;-1.20;61.97
61742;BME280;47650;49.848;9.620;2023-02-28T02:57:22;100631.41;;;-0.91;62.72
61742;BME280;47650;49.848;9.620;2023-02-28T02:59:50;100618.44;;;-0.93;62.18
61742;BME280;47650;49.848;9.620;2023-02-28T03:02:19;100637.22;;;-0.83;61.90
61742;BME280;47650;49.848;9.620;2023-02-28T03:04:50;100633.59;;;-0.78;62.09
61742;BME280;47650;49.848;9.620;2023-02-28T03:07:17;100619.00;;;-0.83;62.17
61742;BME280;47650;49.848;9.620;2023-02-28T03:09:54;100634.63;;;-0.83;62.13
61742;BME280;47650;49.848;9.620;2023-02-28T03:12:23;100636.75;;;-0.96;61.62
61742;BME280;47650;49.848;9.620;2023-02-28T03:15:26;100632.53;;;-0.72;61.58
61742;BME280;47650;49.848;9.620;2023-02-28T03:18:04;100635.22;;;-1.31;62.87
61742;BME280;47650;49.848;9.620;2023-02-28T03:20:57;100576.97;;;-1.27;62.01
61742;BME280;47650;49.848;9.620;2023-02-28T03:23:33;100627.00;;;-0.89;61.38
61742;BME280;47650;49.848;9.620;2023-02-28T03:26:23;100634.63;;;-0.83;61.81
61742;BME280;47650;49.848;9.620;2023-02-28T03:28:55;100616.47;;;-1.15;62.32
61742;BME280;47650;49.848;9.620;2023-02-28T03:31:33;100631.28;;;-0.88;62.50
61742;BME280;47650;49.848;9.620;2023-02-28T03:34:29;100634.34;;;-0.74;61.71
61742;BME280;47650;49.848;9.620;2023-02-28T03:37:02;100636.84;;;-0.99;61.97
61742;BME280;47650;49.848;9.620;2023-02-28T03:39:45;100616.09;;;-1.02;61.46
61742;BME280;47650;49.848;9.620;2023-02-28T03:42:22;100542.09;;;-1.50;61.26
61742;BME280;47650;49.848;9.620;2023-02-28T03:45:02;100601.66;;;-1.13;61.05
61742;BME280;47650;49.848;9.620;2023-02-28T03:47:58;100631.59;;;-0.98;61.44
61742;BME280;47650;49.848;9.620;2023-02-28T03:50:34;100635.31;;;-1.06;61.29
61742;BME280;47650;49.848;9.620;2023-02-28T03:53:30;100635.50;;;-1.42;62.21
61742;BME280;47650;49.848;9.620;2023-02-28T03:56:30;100637.13;;;-1.38;62.11
61742;BME280;47650;49.848;9.620;2023-02-28T03:59:36;100646.22;;;-1.53;63.22
61742;BME280;47650;49.848;9.620;2023-02-28T04:02:03;100642.41;;;-1.71;63.74
61742;BME280;47650;49.848;9.620;2023-02-28T04:04:28;100639.03;;;-1.75;63.85
61742;BME280;47650;49.848;9.620;2023-02-28T04:07:07;100641.91;;;-1.54;63.82
61742;BME280;47650;49.848;9.620;2023-02-28T04:09:33;100647.38;;;-1.63;63.49
61742;BME280;47650;49.848;9.620;2023-02-28T04:11:58;100643.19;;;-1.69;64.10
61742;BME280;47650;49.848;9.620;2023-02-28T04:14:29;100614.63;;;-1.71;63.60
61742;BME280;47650;49.848;9.620;2023-02-28T04:16:55;100644.22;;;-1.75;63.13
61742;BME280;47650;49.848;9.620;2023-02-28T04:19:22;100642.25;;;-1.66;63.70
61742;BME280;47650;49.848;9.620;2023-02-28T04:21:52;100625.19;;;-1.77;63.68
61742;BME280;47650;49.848;9.620;2023-02-28T04:24:23;100645.63;;;-1.63;63.02
61742;BME280;47650;49.848;9.620;2023-02-28T04:26:52;100626.44;;;-1.90;64.24
61742;BME280;47650;49.848;9.620;2023-02-28T04:29:25;100637.09;;;-1.68;63.55
61742;BME280;47650;49.848;9.620;2023-02-28T04:31:52;100645.56;;;-1.61;63.36
61742;BME280;47650;49.848;9.620;2023-02-28T04:34:19;100616.78;;;-1.85;62.94
61742;BME280;47650;49.848;9.620;2023-02-28T04:36:45;100645.69;;;-1.64;63.34
61742;BME280;47650;49.848;9.620;2023-02-28T04:39:11;100643.38;;;-1.77;62.89
61742;BME280;47650;49.848;9.620;2023-02-28T04:41:46;100629.03;;;-1.90;63.44
61742;BME280;47650;49.848;9.620;2023-02-28T04:44:14;100522.34;;;-2.50;63.25
61742;BME280;47650;49.848;9.620;2023-02-28T04:46:40;100624.59;;;-1.86;64.02
61742;BME280;47650;49.848;9.620;2023-02-28T04:49:05;100621.50;;;-2.01;63.28
61742;BME280;47650;49.848;9.620;2023-02-28T04:51:33;100648.56;;;-1.75;63.35
61742;BME280;47650;49.848;9.620;2023-02-28T04:54:12;100620.34;;;-1.89;64.08
61742;BME280;47650;49.848;9.620;2023-02-28T04:56:47;100646.50;;;-1.62;63.13
61742;BME280;47650;49.848;9.620;2023-02-28T04:59:16;100637.22;;;-1.73;62.49
61742;BME280;47650;49.848;9.620;2023-02-28T05:01:49;100654.63;;;-1.75;62.66
61742;BME280;47650;49.848;9.620;2023-02-28T05:04:15;100649.53;;;-1.79;62.78
61742;BME280;47650;49.848;9.620;2023-02-28T05:06:55;100645.47;;;-1.90;62.98
61742;BME280;47650;49.848;9.620;2023-02-28T05:09:21;100652.63;;;-1.98;62.85
61742;BME280;47650;49.848;9.620;2023-02-28T05:11:55;100653.22;;;-1.86;63.47
61742;BME280;47650;49.848;9.620;2023-02-28T05:14:35;100642.91;;;-1.91;62.07
61742;BME280;47650;49.848;9.620;2023-02-28T05:17:01;100576.72;;;-2.43;63.34
61742;BME280;47650;49.848;9.620;2023-02-28T05:19:33;100619.44;;;-2.21;63.05
61742;BME280;47650;49.848;9.620;2023-02-28T05:21:58;100664.84;;;-2.01;62.36
61742;BME280;47650;49.848;9.620;2023-02-28T05:24:24;100614.56;;;-2.33;62.46
61742;BME280;47650;49.848;9.620;2023-02-28T05:26:53;100660.84;;;-2.15;61.96
61742;BME280;47650;49.848;9.620;2023-02-28T05:29:21;100632.00;;;-2.38;61.99
61742;BME280;47650;49.848;9.620;2023-02-28T05:31:47;100661.25;;;-2.30;62.07
61742;BME280;47650;49.848;9.620;2023-02-28T05:34:17;100644.19;;;-2.40;62.00
61742;BME280;47650;49.848;9.620;2023-02-28T05:36:45;100643.59;;;-2.52;62.01
61742;BME280;47650;49.848;9.620;2023-02-28T05:39:10;100663.31;;;-2.44;62.22
61742;BME280;47650;49.848;9.620;2023-02-28T05:41:42;100672.00;;;-2.46;61.95
61742;BME280;47650;49.848;9.620;2023-02-28T05:44:07;100678.13;;;-2.48;62.32
61742;BME280;47650;49.848;9.620;2023-02-28T05:46:33;100676.47;;;-2.51;62.37
61742;BME280;47650;49.848;9.620;2023-02-28T05:49:01;100673.97;;;-2.55;63.01
61742;BME280;47650;49.848;9.620;2023-02-28T05:51:27;100678.16;;;-2.50;63.06
61742;BME280;47650;49.848;9.620;2023-02-28T05:54:21;100682.50;;;-2.50;63.24
61742;BME280;47650;49.848;9.620;2023-02-28T05:56:48;100671.69;;;-2.69;63.14
61742;BME280;47650;49.848;9.620;2023-02-28T05:59:14;100680.16;;;-2.61;62.73
61742;BME280;47650;49.848;9.620;2023-02-28T06:01:44;100687.06;;;-2.61;63.01
61742;BME280;47650;49.848;9.620;2023-02-28T06:04:14;100686.22;;;-2.62;63.12
61742;BME280;47650;49.848;9.620;2023-02-28T06:06:50;100679.41;;;-2.66;63.13
61742;BME280;47650;49.848;9.620;2023-02-28T06:09:17;100682.75;;;-2.61;63.74
61742;BME280;47650;49.848;9.620;2023-02-28T06:11:50;100648.84;;;-2.92;63.97
61742;BME280;47650;49.848;9.620;2023-02-28T06:14:23;100676.94;;;-2.72;65.29
61742;BME280;47650;49.848;9.620;2023-02-28T06:16:54;100696.88;;;-2.73;65.71
61742;BME280;47650;49.848;9.620;2023-02-28T06:19:19;100646.88;;;-2.83;65.55
61742;BME280;47650;49.848;9.620;2023-02-28T06:21:44;100694.53;;;-2.48;65.60
61742;BME280;47650;49.848;9.620;2023-02-28T06:24:15;100686.72;;;-2.46;64.82
61742;BME280;47650;49.848;9.620;2023-02-28T06:26:42;100694.13;;;-2.29;64.87
61742;BME280;47650;49.848;9.620;2023-02-28T06:29:09;100687.50;;;-2.42;64.81
61742;BME280;47650;49.848;9.620;2023-02-28T06:31:36;100689.91;;;-2.33;64.49
61742;BME280;47650;49.848;9.620;2023-02-28T06:34:08;100684.28;;;-2.16;63.79
61742;BME280;47650;49.848;9.620;2023-02-28T06:36:35;100700.53;;;-2.08;64.12
61742;BME280;47650;49.848;9.620;2023-02-28T06:39:00;100655.97;;;-2.27;63.07
61742;BME280;47650;49.848;9.620;2023-02-28T06:41:27;100701.94;;;-1.95;63.02
61742;BME280;47650;49.848;9.620;2023-02-28T06:44:26;100710.09;;;-1.76;62.32
61742;BME280;47650;49.848;9.620;2023-02-28T06:47:03;100703.19;;;-1.77;62.43
61742;BME280;47650;49.848;9.620;2023-02-28T06:49:33;100703.13;;;-1.74;62.01
61742;BME280;47650;49.848;9.620;2023-02-28T06:52:07;100709.75;;;-1.96;62.93
61742;BME280;47650;49.848;9.620;2023-02-28T06:54:43;100707.09;;;-1.93;63.58
61742;BME280;47650;49.848;9.620;2023-02-28T06:57:21;100693.31;;;-1.97;62.54
61742;BME280;47650;49.848;9.620;2023-02-28T06:59:46;100720.44;;;-1.40;61.66
61742;BME280;47650;49.848;9.620;2023-02-28T07:02:11;100726.16;;;-1.28;61.05
61742;BME280;47650;49.848;9.620;2023-02-28T07:04:43;100690.78;;;-1.34;61.25
61742;BME280;47650;49.848;9.620;2023-02-28T07:07:09;100665.06;;;-1.45;59.85
61742;BME280;47650;49.848;9.620;2023-02-28T07:09:34;100698.34;;;-1.26;60.61
61742;BME280;47650;49.848;9.620;2023-02-28T07:12:00;100715.59;;;-1.22;60.89
61742;BME280;47650;49.848;9.620;2023-02-28T07:14:26;100711.38;;;-0.95;60.57
61742;BME280;47650;49.848;9.620;2023-02-28T07:17:01;100717.84;;;-1.10;59.48
61742;BME280;47650;49.848;9.620;2023-02-28T07:19:26;100669.03;;;-1.02;59.32
61742;BME280;47650;49.848;9.620;2023-02-28T07:21:52;100671.97;;;-0.84;58.51
61742;BME280;47650;49.848;9.620;2023-02-28T07:24:17;100698.16;;;-0.61;59.07
61742;BME280;47650;49.848;9.620;2023-02-28T07:26:43;100711.53;;;-0.43;57.90
61742;BME280;47650;49.848;9.620;2023-02-28T07:29:09;100720.66;;;-0.03;57.86
61742;BME280;47650;49.848;9.620;2023-02-28T07:31:34;100723.97;;;0.02;57.65
61742;BME280;47650;49.848;9.620;2023-02-28T07:34:06;100702.56;;;-0.08;57.09
61742;BME280;47650;49.848;9.620;2023-02-28T07:36:32;100713.78;;;0.21;57.01
61742;BME280;47650;49.848;9.620;2023-02-28T07:39:03;100719.66;;;0.28;56.47
61742;BME280;47650;49.848;9.620;2023-02-28T07:41:30;100720.69;;;0.22;56.00
61742;BME280;47650;49.848;9.620;2023-02-28T07:43:58;100716.44;;;0.45;55.81
61742;BME280;47650;49.848;9.620;2023-02-28T07:46:26;100716.97;;;0.54;56.01
61742;BME280;47650;49.848;9.620;2023-02-28T07:48:52;100724.44;;;0.40;56.53
61742;BME280;47650;49.848;9.620;2023-02-28T07:51:19;100698.81;;;0.51;55.00
61742;BME280;47650;49.848;9.620;2023-02-28T07:53:45;100709.50;;;0.92;55.21
61742;BME280;47650;49.848;9.620;2023-02-28T07:56:11;100699.97;;;0.91;54.43
61742;BME280;47650;49.848;9.620;2023-02-28T07:58:45;100722.28;;;1.46;53.54
61742;BME280;47650;49.848;9.620;2023-02-28T08:01:12;100718.06;;;1.42;53.26
61742;BME280;47650;49.848;9.620;2023-02-28T08:03:39;100699.38;;;1.95;51.78
61742;BME280;47650;49.848;9.620;2023-02-28T08:06:05;100725.81;;;1.89;52.39
61742;BME280;47650;49.848;9.620;2023-02-28T08:08:31;100685.63;;;2.33;50.53
61742;BME280;47650;49.848;9.620;2023-02-28T08:11:15;100695.56;;;3.04;49.75
61742;BME280;47650;49.848;9.620;2023-02-28T08:13:44;100715.63;;;3.79;47.57
61742;BME280;47650;49.848;9.620;2023-02-28T08:16:10;100699.03;;;3.60;46.76
61742;BME280;47650;49.848;9.620;2023-02-28T08:18:43;100704.28;;;4.48;44.72
61742;BME280;47650;49.848;9.620;2023-02-28T08:21:09;100714.84;;;4.47;44.64
61742;BME280;47650;49.848;9.620;2023-02-28T08:23:36;100694.72;;;5.76;42.58
61742;BME280;47650;49.848;9.620;2023-02-28T08:26:02;100666.31;;;7.00;39.31
61742;BME280;47650;49.848;9.620;2023-02-28T08:28:28;100689.47;;;6.37;39.76
61742;BME280;47650;49.848;9.620;2023-02-28T08:33:22;100676.88;;;7.54;37.57
61742;BME280;47650;49.848;9.620;2023-02-28T08:35:48;100671.63;;;8.73;36.09
61742;BME280;47650;49.848;9.620;2023-02-28T08:38:14;100679.25;;;8.77;36.27
61742;BME280;47650;49.848;9.620;2023-02-28T08:40:40;100668.16;;;9.09;34.96
61742;BME280;47650;49.848;9.620;2023-02-28T08:43:06;100664.16;;;10.35;32.26
61742;BME280;47650;49.848;9.620;2023-02-28T08:45:38;100677.81;;;10.18;32.48
61742;BME280;47650;49.848;9.620;2023-02-28T08:48:07;100629.09;;;9.96;32.29
61742;BME280;47650;49.848;9.620;2023-02-28T08:50:32;100678.25;;;10.01;31.70
61742;BME280;47650;49.848;9.620;2023-02-28T08:52:59;100625.28;;;10.12;31.30
61742;BME280;47650;49.848;9.620;2023-02-28T08:55:24;100669.34;;;10.71;31.76
61742;BME280;47650;49.848;9.620;2023-02-28T08:57:51;100655.84;;;10.97;30.22
61742;BME280;47650;49.848;9.620;2023-02-28T09:00:17;100673.00;;;10.93;30.88
61742;BME280;47650;49.848;9.620;2023-02-28T09:02:44;100669.53;;;12.33;29.58
61742;BME280;47650;49.848;9.620;2023-02-28T09:05:10;100666.75;;;12.96;28.56
61742;BME280;47650;49.848;9.620;2023-02-28T09:07:37;100666.22;;;12.71;28.88
61742;BME280;47650;49.848;9.620;2023-02-28T09:10:02;100661.56;;;12.64;28.55
61742;BME280;47650;49.848;9.620;2023-02-28T09:12:33;100658.38;;;13.90;26.49
61742;BME280;47650;49.848;9.620;2023-02-28T09:14:58;100656.44;;;14.39;26.05
61742;BME280;47650;49.848;9.620;2023-02-28T09:17:23;100661.88;;;12.18;27.46
61742;BME280;47650;49.848;9.620;2023-02-28T09:19:50;100658.78;;;12.13;27.64
61742;BME280;47650;49.848;9.620;2023-02-28T09:22:16;100654.88;;;13.10;26.79
61742;BME280;47650;49.848;9.620;2023-02-28T09:24:47;100655.66;;;12.91;26.69
61742;BME280;47650;49.848;9.620;2023-02-28T09:27:16;100602.75;;;14.62;25.06
61742;BME280;47650;49.848;9.620;2023-02-28T09:29:41;100641.72;;;14.82;25.31
61742;BME280;47650;49.848;9.620;2023-02-28T09:32:07;100640.44;;;14.59;24.30
61742;BME280;47650;49.848;9.620;2023-02-28T09:34:32;100642.25;;;16.48;22.50
61742;BME280;47650;49.848;9.620;2023-02-28T09:36:59;100646.66;;;14.30;24.87
61742;BME280;47650;49.848;9.620;2023-02-28T09:39:24;100637.72;;;14.02;24.67
61742;BME280;47650;49.848;9.620;2023-02-28T09:42:02;100645.69;;;15.24;23.62
61742;BME280;47650;49.848;9.620;2023-02-28T09:44:38;100650.88;;;14.23;23.78
61742;BME280;47650;49.848;9.620;2023-02-28T09:47:27;100574.34;;;13.47;24.53
61742;BME280;47650;49.848;9.620;2023-02-28T09:49:58;100655.13;;;13.86;23.84
61742;BME280;47650;49.848;9.620;2023-02-28T09:52:30;100658.19;;;14.21;25.09
61742;BME280;47650;49.848;9.620;2023-02-28T09:55:19;100647.09;;;15.64;23.44
61742;BME280;47650;49.848;9.620;2023-02-28T09:57:48;100603.38;;;12.80;24.91
61742;BME280;47650;49.848;9.620;2023-02-28T10:00:20;100631.94;;;12.47;25.73
61742;BME280;47650;49.848;9.620;2023-02-28T10:05:43;100664.13;;;12.75;26.08
61742;BME280;47650;49.848;9.620;2023-02-28T10:08:29;100674.06;;;10.67;28.55
61742;BME280;47650;49.848;9.620;2023-02-28T10:11:06;100667.22;;;10.18;29.63
61742;BME280;47650;49.848;9.620;2023-02-28T10:13:53;100680.59;;;10.52;28.96
61742;BME280;47650;49.848;9.620;2023-02-28T10:16:44;100674.47;;;11.84;27.35
61742;BME280;47650;49.848;9.620;2023-02-28T10:19:17;100682.00;;;9.13;32.02
61742;BME280;47650;49.848;9.620;2023-02-28T10:21:55;100663.63;;;9.35;31.11
61742;BME280;47650;49.848;9.620;2023-02-28T10:24:42;100696.13;;;8.36;33.05
61742;BME280;47650;49.848;9.620;2023-02-28T10:27:15;100683.25;;;9.20;32.49
61742;BME280;47650;49.848;9.620;2023-02-28T10:29:49;100670.31;;;10.01;31.02
61742;BME280;47650;49.848;9.620;2023-02-28T10:32:30;100670.63;;;9.60;31.57
61742;BME280;47650;49.848;9.620;2023-02-28T10:35:06;100666.47;;;10.63;29.91
61742;BME280;47650;49.848;9.620;2023-02-28T10:37:33;100666.94;;;10.34;30.16
61742;BME280;47650;49.848;9.620;2023-02-28T10:40:05;100644.53;;;11.38;28.97
61742;BME280;47650;49.848;9.620;2023-02-28T10:42:31;100670.03;;;12.27;27.25
61742;BME280;47650;49.848;9.620;2023-02-28T10:45:16;100658.63;;;13.58;25.18
61742;BME280;47650;49.848;9.620;2023-02-28T10:47:57;100640.59;;;15.31;23.03
61742;BME280;47650;49.848;9.620;2023-02-28T10:50:46;100637.88;;;15.94;22.11
61742;BME280;47650;49.848;9.620;2023-02-28T10:58:23;100643.91;;;14.97;24.20
61742;BME280;47650;49.848;9.620;2023-02-28T11:00:51;100636.69;;;14.79;23.41
61742;BME280;47650;49.848;9.620;2023-02-28T11:03:33;100646.13;;;12.57;26.01
61742;BME280;47650;49.848;9.620;2023-02-28T11:06:05;100647.91;;;12.78;25.82
61742;BME280;47650;49.848;9.620;2023-02-28T11:08:31;100637.66;;;15.06;24.47
61742;BME280;47650;49.848;9.620;2023-02-28T11:11:06;100636.00;;;16.65;22.92
61742;BME280;47650;49.848;9.620;2023-02-28T11:13:35;100639.66;;;15.04;23.18
61742;BME280;47650;49.848;9.620;2023-02-28T11:16:04;100641.38;;;14.48;23.99
61742;BME280;47650;49.848;9.620;2023-02-28T11:18:42;100641.38;;;14.10;24.29
61742;BME280;47650;49.848;9.620;2023-02-28T11:21:09;100603.16;;;14.67;23.35
61742;BME280;47650;49.848;9.620;2023-02-28T11:23:42;100640.34;;;14.11;24.53
61742;BME280;47650;49.848;9.620;2023-02-28T11:26:16;100638.91;;;11.64;26.85
61742;BME280;47650;49.848;9.620;2023-02-28T11:29:32;100632.78;;;11.20;28.09
61742;BME280;47650;49.848;9.620;2023-02-28T11:34:36;100658.44;;;11.74;27.83
61742;BME280;47650;49.848;9.620;2023-02-28T11:37:13;100623.88;;;11.53;27.67
61742;BME280;47650;49.848;9.620;2023-02-28T11:39:39;100636.47;;;12.56;27.01
61742;BME280;47650;49.848;9.620;2023-02-28T11:45:23;100657.22;;;11.35;28.21
61742;BME280;47650;49.848;9.620;2023-02-28T11:48:31;100659.69;;;11.26;29.68
61742;BME280;47650;49.848;9.620;2023-02-28T11:51:15;100637.41;;;14.24;25.24
61742;BME280;47650;49.848;9.620;2023-02-28T11:56:44;100636.75;;;17.18;22.13
61742;BME280;47650;49.848;9.620;2023-02-28T11:59:47;100622.06;;;17.72;20.44
61742;BME280;47650;49.848;9.620;2023-02-28T12:02:23;100613.34;;;18.75;19.19
61742;BME280;47650;49.848;9.620;2023-02-28T12:08:11;100632.94;;;19.00;18.40
61742;BME280;47650;49.848;9.620;2023-02-28T12:13:26;100612.75;;;20.79;17.28
61742;BME280;47650;49.848;9.620;2023-02-28T12:16:23;100602.88;;;21.23;17.31
61742;BME280;47650;49.848;9.620;2023-02-28T12:27:11;100595.00;;;21.43;17.67
61742;BME280;47650;49.848;9.620;2023-02-28T12:32:27;100591.28;;;22.92;15.67
61742;BME280;47650;49.848;9.620;2023-02-28T12:37:40;100585.91;;;21.66;16.51
61742;BME280;47650;49.848;9.620;2023-02-28T12:40:13;100591.41;;;20.63;16.96
61742;BME280;47650;49.848;9.620;2023-02-28T12:42:42;100562.53;;;17.19;20.64
61742;BME280;47650;49.848;9.620;2023-02-28T12:45:46;100595.31;;;18.44;18.90
61742;BME280;47650;49.848;9.620;2023-02-28T12:48:50;100551.34;;;17.48;19.65
61742;BME280;47650;49.848;9.620;2023-02-28T12:51:21;100596.06;;;17.39;21.02
61742;BME280;47650;49.848;9.620;2023-02-28T12:59:51;100567.97;;;21.36;17.13
61742;BME280;47650;49.848;9.620;2023-02-28T13:05:26;100555.88;;;20.74;17.83
61742;BME280;47650;49.848;9.620;2023-02-28T13:10:40;100548.25;;;18.65;18.22
61742;BME280;47650;49.848;9.620;2023-02-28T13:13:14;100577.66;;;17.94;19.24
61742;BME280;47650;49.848;9.620;2023-02-28T13:15:41;100563.63;;;18.87;18.07
61742;BME280;47650;49.848;9.620;2023-02-28T13:18:36;100569.94;;;20.70;16.83
61742;BME280;47650;49.848;9.620;2023-02-28T13:21:03;100556.72;;;21.76;16.05
61742;BME280;47650;49.848;9.620;2023-02-28T13:26:24;100554.81;;;23.43;15.12
61742;BME280;47650;49.848;9.620;2023-02-28T13:34:41;100552.28;;;22.25;15.71
61742;BME280;47650;49.848;9.620;2023-02-28T13:40:32;100546.72;;;21.98;16.16
61742;BME280;47650;49.848;9.620;2023-02-28T13:43:02;100558.94;;;21.66;15.86
61742;BME280;47650;49.848;9.620;2023-02-28T13:45:28;100545.81;;;22.54;15.43
61742;BME280;47650;49.848;9.620;2023-02-28T13:48:25;100545.00;;;21.90;15.66
61742;BME280;47650;49.848;9.620;2023-02-28T13:50:49;100544.25;;;22.31;15.71
61742;BME280;47650;49.848;9.620;2023-02-28T13:53:41;100539.06;;;22.37;15.40
61742;BME280;47650;49.848;9.620;2023-02-28T13:58:53;100541.38;;;22.40;15.70
61742;BME280;47650;49.848;9.620;2023-02-28T14:07:04;100526.28;;;22.17;16.07
61742;BME280;47650;49.848;9.620;2023-02-28T14:09:35;100535.09;;;21.04;16.71
61742;BME280;47650;49.848;9.620;2023-02-28T14:15:39;100529.66;;;22.67;15.76
61742;BME280;47650;49.848;9.620;2023-02-28T14:18:19;100522.84;;;22.85;15.54
61742;BME280;47650;49.848;9.620;2023-02-28T14:21:01;100494.88;;;22.16;15.96
61742;BME280;47650;49.848;9.620;2023-02-28T14:23:50;100523.38;;;23.15;15.19
61742;BME280;47650;49.848;9.620;2023-02-28T14:29:43;100528.19;;;22.71;15.00
61742;BME280;47650;49.848;9.620;2023-02-28T14:38:27;100524.69;;;22.29;15.79
61742;BME280;47650;49.848;9.620;2023-02-28T14:41:04;100477.47;;;21.55;16.84
61742;BME280;47650;49.848;9.620;2023-02-28T14:43:32;100506.03;;;22.00;15.34
61742;BME280;47650;49.848;9.620;2023-02-28T14:46:02;100518.47;;;22.29;15.03
61742;BME280;47650;49.848;9.620;2023-02-28T14:48:28;100517.75;;;23.30;15.10
61742;BME280;47650;49.848;9.620;2023-02-28T14:50:56;100509.25;;;21.88;16.53
61742;BME280;47650;49.848;9.620;2023-02-28T14:53:37;100516.09;;;21.34;16.29
61742;BME280;47650;49.848;9.620;2023-02-28T14:56:02;100520.25;;;21.15;16.99
61742;BME280;47650;49.848;9.620;2023-02-28T14:58:33;100504.84;;;20.88;16.40